Offutt Air Force Base
KOFF : now visible

Airfield :











YOU CAN JOIN US ON...

 
LOGIN :

Register | Disclaimer

   EN    FR    IT 

 









Legend :    VFR   Marginal VFR   IFR   Intensive IFR   Very Intensive IFR
Visi :
Ceiling :
>= 8 km
>= 3000ft
5 to 8 km
1000 to 3000 ft
1500m to 5 km
500 to 1000 ft
800 to 1500m
200 to 500 ft
< 800m
< 200 ft
Symbols :   Thunderstorms  Fog  Heavy snow  Heavy precipitations  Wind > 20 kt






- Airport Elevation : 1052 ft


KOFF - Offutt Air Force Base

CURRENT METAR :
  • 021656Z 15006KT 10SM SCT180 24/17 A3006 RMK AO2A SLP178 T02390167 PWINO PNO FZRANO TSNO VISNO RWY12 CHINO RWY12 $

EXPIRED METARs :
  • 021556Z 12006KT 10SM SCT025 BKN170 20/17 A3006 RMK AO2A SHRAE56 SLP179 T02000166 PWINO PNO FZRANO TSNO VISNO RWY12 CHINO RWY12 $
  • 021526Z 08003KT 6SM -SHRA BR BKN027 18/16 A3006 RMK AO2A SLP180 PWINO PNO FZRANO TSNO VISNO RWY12 CHINO RWY12 $
  • 021511Z 13005KT 2 1/4SM -SHRA BR BKN025 19/16 A3007 RMK AO2A VIS 2 1/4V9 SLP182 PWINO PNO FZRANO TSNO VISNO RWY12 CHINO RWY12 $
  • 021456Z 15008KT 4SM SHRA SCT028 BKN033 OVC045 20/16 A3007 RMK AO2A SHRAB55 SLP182 60001 T02020156 50010 PWINO PNO FZRANO TSNO VISNO RWY12 CHINO RWY12 $
  • 020256Z 00000KT 10SM CLR 22/16 A3005 RMK AO2A SLP175 T02160159 55001 PWINO PNO FZRANO TSNO VISNO RWY12 CHINO RWY12 $

Expired Forecast.
KZMP FIR / North America



MET'MAP, your aeronautical weather chart ! - Copyright ORBIFLY December 2007 - Disclaimer

ORBIFLY MET'MAP TEAM :

Programming & Development : Alexandra Zaïnal
Original concept : Baudouin d'Aumeries
Technical & hardware support : Manuel Goepfert
Assistance : Marc-Olivier Méhu




SOURCES & CREDITS :

   NOAA       Earth
Advisory